Terminal Aerodrome Forecast
Issued by NWS Quad Cities IA IL

Home | Current Version | Previous Version | Text Only | Print | Product List | Glossary Off
Versions: 1 2 3 4 5 6 7 8 9 10 11 12 13 14 15 16 17 18 19 20

900
FTUS43 KDVN 142153 AAB
TAFMLI
TAF AMD
KMLI 142153Z 1422/1518 29004KT P6SM OVC029
     FM150500 27008KT P6SM BKN025
     FM151500 28012KT P6SM BKN030=

USA.gov is the U.S. government's official web portal to all federal, state and local government web resources and services.